Friday, January 30, 2015, 1:28 PM EST
Back to Local

KPTW, Pottstown Limerick Airport

Location: Royersford, PA, United States Lat: 40.233
Local Time: 1:28 PM EST (18:28 GMT) Lon: -75.55
Time Zone: US/Eastern Elev: 291 ft

Show me the last for .
Show Decoded

2015-01-30 12:54 METAR KPTW 301754Z AUTO 30015G27KT BKN045 02/M07 A2991 RMK AO2 PK WND 30027/1748
                 SLP129 60000 T00221072 10022 21011 58006 $ =
2015-01-30 11:54 METAR KPTW 301654Z AUTO 34013G18KT 10SM OVC040 02/M06 A2994 RMK AO2 SLP137
                 T00171061 =
2015-01-30 10:54 METAR KPTW 301554Z AUTO 31014G20KT 10SM FEW034 SCT080 BKN090 02/M06 A2994 RMK
                 AO2 SLP140 T00171061 =
2015-01-30 09:54 METAR KPTW 301454Z AUTO 29012G19KT 10SM SCT038 SCT065 OVC080 01/M03 A2993 RMK
                 AO2 SNB36E47 SLP136 P0000 60000 T00111033 51012 =
2015-01-30 08:54 METAR KPTW 301354Z AUTO 29007KT 7SM FEW029 OVC070 M01/M03 A2992 RMK AO2 SNB10E47
                 SLP134 P0000 T10061028 =
2015-01-30 07:54 METAR KPTW 301254Z AUTO 29007KT 9SM BKN080 OVC100 M01/M04 A2991 RMK AO2 SLP129
                 T10111039 =
2015-01-30 06:54 METAR KPTW 301154Z AUTO 29006KT 9SM OVC080 M01/M04 A2990 RMK AO2 SLP124 60000
                 70002 T10111039 11011 21017 53005 =
2015-01-30 05:54 METAR KPTW 301054Z AUTO 29006KT 10SM SCT041 OVC075 M02/M04 A2988 RMK AO2 SLP119
                 T10171039 =
2015-01-30 05:31 METAR KPTW 301031Z AUTO 29006KT 10SM BKN032 OVC042 M02/M04 A2987 RMK AO2
                 T10171039 =
2015-01-30 04:54 METAR KPTW 300954Z AUTO 27003KT 10SM BKN027 OVC050 M02/M04 A2988 RMK AO2 SLP120
                 T10171039 =
2015-01-30 04:49 METAR KPTW 300949Z AUTO 27003KT 10SM BKN028 OVC050 M02/M04 A2988 RMK AO2 =
2015-01-30 04:08 METAR KPTW 300908Z AUTO 31004KT 10SM SCT026 SCT043 OVC050 M02/M04 A2988 RMK AO2
                 T10171039 =
2015-01-30 03:54 METAR KPTW 300854Z AUTO 00000KT 10SM BKN026 OVC034 M02/M04 A2988 RMK AO2 SLP119
                 60000 T10171039 58015 =
2015-01-30 02:54 METAR KPTW 300754Z AUTO 00000KT 10SM BKN048 OVC075 M02/M04 A2990 RMK AO2 SLP125
                 T10171039 =
2015-01-30 01:54 METAR KPTW 300654Z AUTO 00000KT 10SM OVC034 M01/M04 A2991 RMK AO2
                 UPE0555SNB0555E07 SLP128 P0000 T10111044 =
2015-01-30 00:54 METAR KPTW 300554Z AUTO 00000KT 10SM UP OVC037 M01/M04 A2992 RMK AO2
                 UPB00E07B44SNB0458E00B07E08 SLP134 P0000 60002 T10111039 11006 21022 58025 =
2015-01-29 23:54 METAR KPTW 300454Z AUTO VRB03KT 10SM BKN043 OVC050 M02/M04 A2995 RMK AO2
                 SNE02B27E36 SLP143 P0000 T10171039 410061144 =
2015-01-29 22:54 METAR KPTW 300354Z AUTO VRB03KT 5SM -SN BR OVC042 M02/M04 A2998 RMK AO2 SNE13B36
                 SLP152 P0001 T10221039 =
2015-01-29 22:10 METAR KPTW 300310Z AUTO 00000KT 7SM -SN SCT019 OVC041 M02/M04 A3000 RMK AO2
                 P0001 T10221039 =
2015-01-29 21:54 METAR KPTW 300254Z AUTO 00000KT 2SM -SN BR BKN020 OVC039 M02/M04 A3000 RMK AO2
                 UPB24E29SNE19B29 SLP160 P0000 60001 T10221044 56025 =
2015-01-29 21:52 METAR KPTW 300252Z AUTO 00000KT 2 1/2SM -SN BR BKN020 OVC039 M02/M04 A3000 RMK
                 AO2 UPB24E29SNE19B29 P0000 =
2015-01-29 20:54 METAR KPTW 300154Z AUTO 00000KT 5SM -SN SCT036 OVC045 M02/M06 A3003 RMK AO2
                 SLP171 P0001 T10221056 =
2015-01-29 19:54 METAR KPTW 300054Z AUTO 18003KT 6SM -SN FEW029 SCT035 OVC046 M02/M06 A3007 RMK
                 AO2 SNB03 SLP186 P0000 T10221061 =
2015-01-29 19:49 METAR KPTW 300049Z AUTO VRB03KT 5SM -SN SCT033 OVC046 M02/M06 A3007 RMK AO2
                 SNB03 P0000 =
2015-01-29 19:13 METAR KPTW 300013Z AUTO 20009KT 5SM -SN BKN024 BKN037 OVC050 M02/M08 A3010 RMK
                 AO2 SNB03 P0000 T10171083 =
2015-01-29 18:54 METAR KPTW 292354Z AUTO 21004KT 10SM SCT041 OVC050 M01/M11 A3010 RMK AO2 SLP195
                 T10061106 11006 21011 55005 =
2015-01-29 17:54 METAR KPTW 292254Z AUTO 17004KT 10SM OVC065 M01/M12 A3008 RMK AO2 SLP189
                 T10061117 =
2015-01-29 16:54 METAR KPTW 292154Z AUTO VRB04KT 10SM OVC070 M01/M12 A3010 RMK AO2 SLP196
                 T10061122 =
2015-01-29 15:54 METAR KPTW 292054Z AUTO 15005KT 10SM BKN095 M01/M13 A3011 RMK AO2 SLP200
                 T10061133 56035 =
2015-01-29 14:54 METAR KPTW 291954Z AUTO VRB04KT 10SM OVC100 M01/M14 A3015 RMK AO2 SLP213
                 T10061144 =
2015-01-29 13:54 METAR KPTW 291854Z AUTO VRB03KT 10SM OVC100 M01/M14 A3018 RMK AO2 SLP220
                 T10061144 =

Support USWX by starting your Amazon purchase here.